Time;durP1;ratioP1;P1;durP2;ratioP2;P2;SDS_P1;SDS_P2;PMS_P1;PMS_P2;Temp;Humidity;BMP_temperature;BMP_pressure;BME280_temperature;BME280_humidity;BME280_pressure;Samples;Min_cycle;Max_cycle;Signal;HPM_P1;HPM_P2
2021/08/02 00:02:27;;;;;;;7.37;5.77;;;;;;;16.20;80.62;99147.51;153946;1101;103196;-78
2021/08/02 00:05:36;;;;;;;5.95;5.33;;;;;;;16.19;81.86;99140.49;154005;1093;103136;-78
2021/08/02 00:08:39;;;;;;;6.20;5.60;;;;;;;16.14;81.37;99134.92;154004;1101;103296;-77
2021/08/02 00:11:50;;;;;;;6.30;5.23;;;;;;;16.15;81.45;99139.25;153992;1100;103192;-76
2021/08/02 00:14:53;;;;;;;7.20;5.30;;;;;;;16.14;81.26;99148.38;153918;1093;103223;-77
2021/08/02 00:17:57;;;;;;;6.00;5.33;;;;;;;16.12;81.04;99148.59;153984;1100;103116;-76
2021/08/02 00:21:03;;;;;;;6.98;5.50;;;;;;;16.16;80.25;99151.67;154060;1094;103113;-77
2021/08/02 00:24:07;;;;;;;7.40;5.10;;;;;;;16.15;81.12;99155.39;153967;1100;103203;-78
2021/08/02 00:27:10;;;;;;;6.27;5.33;;;;;;;16.09;81.43;99151.73;153992;1101;103207;-79
2021/08/02 00:30:14;;;;;;;6.73;5.30;;;;;;;16.06;80.59;99162.91;153955;1100;103580;-81
2021/08/02 00:33:17;;;;;;;7.25;5.45;;;;;;;15.99;80.80;99157.55;153963;1101;103155;-80
2021/08/02 00:36:31;;;;;;;6.13;4.80;;;;;;;15.96;79.91;99152.63;154042;1094;103209;-80
2021/08/02 00:39:46;;;;;;;5.13;3.80;;;;;;;15.93;80.72;99158.42;153929;1093;103216;-80
2021/08/02 00:43:09;;;;;;;5.10;4.57;;;;;;;15.92;80.10;99151.41;154059;1093;103197;-82
2021/08/02 00:46:13;;;;;;;6.47;4.10;;;;;;;15.88;80.04;99166.33;154078;1101;103123;-81
2021/08/02 00:49:17;;;;;;;4.50;3.68;;;;;;;15.87;80.46;99156.59;154105;1098;103193;-78
2021/08/02 00:52:26;;;;;;;4.73;3.70;;;;;;;15.86;79.47;99163.84;154127;1093;103195;-77
2021/08/02 00:55:32;;;;;;;5.55;4.10;;;;;;;15.79;79.90;99157.66;154021;1093;103254;-79
2021/08/02 00:58:40;;;;;;;5.30;3.73;;;;;;;15.74;79.92;99157.47;154053;1093;103133;-80
2021/08/02 01:01:45;;;;;;;4.30;3.90;;;;;;;15.68;80.22;99148.39;154059;1100;103207;-80
2021/08/02 01:04:51;;;;;;;5.57;3.43;;;;;;;15.65;80.53;99162.25;154141;1100;103279;-76
2021/08/02 01:07:59;;;;;;;3.93;3.50;;;;;;;15.63;80.00;99158.95;154000;1101;103129;-73
2021/08/02 01:11:10;;;;;;;3.90;3.37;;;;;;;15.66;80.26;99155.81;154019;1093;103209;-73
2021/08/02 01:14:15;;;;;;;3.95;3.25;;;;;;;15.63;79.56;99156.27;154062;1093;103120;-77
2021/08/02 01:17:19;;;;;;;5.30;3.33;;;;;;;15.62;79.24;99162.66;154039;1100;103192;-76
2021/08/02 01:20:23;;;;;;;5.00;3.50;;;;;;;15.66;79.58;99160.38;154012;1093;103573;-75
2021/08/02 01:23:30;;;;;;;3.13;2.83;;;;;;;15.66;80.17;99169.27;154055;1100;103196;-76
2021/08/02 01:27:09;;;;;;;5.38;2.95;;;;;;;15.65;79.13;99162.25;154008;1100;103468;-75
2021/08/02 01:30:20;;;;;;;3.20;2.70;;;;;;;15.71;79.34;99166.77;154023;1101;103115;-75
2021/08/02 01:33:30;;;;;;;4.88;2.60;;;;;;;15.71;79.18;99161.39;153947;1093;103215;-75
2021/08/02 01:36:38;;;;;;;2.93;2.45;;;;;;;15.78;78.84;99165.94;153920;1100;103192;-74
2021/08/02 01:39:49;;;;;;;3.25;2.68;;;;;;;15.89;79.36;99165.27;153954;1100;103113;-78
2021/08/02 01:42:53;;;;;;;3.40;3.10;;;;;;;15.92;78.54;99172.92;154022;1093;103206;-76
2021/08/02 01:46:03;;;;;;;5.07;3.00;;;;;;;15.98;79.04;99160.48;154074;1093;103215;-74
2021/08/02 01:49:16;;;;;;;5.70;3.20;;;;;;;16.05;78.76;99164.79;153932;1100;103094;-76
2021/08/02 01:52:26;;;;;;;3.13;2.50;;;;;;;16.11;78.48;99165.80;153986;1093;103131;-76
2021/08/02 01:55:29;;;;;;;2.85;2.55;;;;;;;16.19;78.61;99170.09;153969;1093;103182;-76
2021/08/02 01:58:40;;;;;;;3.23;2.80;;;;;;;16.25;78.41;99169.23;153953;1093;103216;-77
2021/08/02 02:02:01;;;;;;;3.90;2.70;;;;;;;16.23;78.35;99157.85;154070;1093;103209;-75
2021/08/02 02:05:08;;;;;;;5.23;2.85;;;;;;;16.20;78.10;99163.66;154134;1101;103637;-75
2021/08/02 02:08:17;;;;;;;3.90;2.47;;;;;;;16.24;78.54;99164.87;154084;1101;103150;-75
2021/08/02 02:11:23;;;;;;;4.87;2.80;;;;;;;16.28;78.34;99172.31;153967;1101;103118;-79
2021/08/02 02:14:30;;;;;;;5.18;2.48;;;;;;;16.28;77.86;99166.08;153978;1093;103254;-78
2021/08/02 02:17:37;;;;;;;3.33;3.00;;;;;;;16.30;78.06;99166.69;154100;1093;103148;-76
2021/08/02 02:20:43;;;;;;;4.53;2.85;;;;;;;16.25;78.18;99169.23;154043;1094;103128;-76
2021/08/02 02:23:47;;;;;;;3.70;2.93;;;;;;;16.24;78.08;99168.41;154017;1093;103608;-77
2021/08/02 02:26:54;;;;;;;4.30;3.07;;;;;;;16.20;78.17;99164.47;154035;1093;103127;-75
2021/08/02 02:29:57;;;;;;;4.85;2.75;;;;;;;16.22;78.45;99173.16;153963;1101;103355;-78
2021/08/02 02:33:01;;;;;;;3.80;3.20;;;;;;;16.25;78.06;99171.91;154084;1094;103222;-77
2021/08/02 02:36:05;;;;;;;3.80;3.40;;;;;;;16.22;78.41;99173.16;153966;1093;103192;-76
2021/08/02 02:39:09;;;;;;;4.40;3.00;;;;;;;16.23;78.46;99174.00;153981;1100;103211;-82
2021/08/02 02:42:12;;;;;;;4.43;3.43;;;;;;;16.26;78.43;99176.24;154177;1093;103108;-79
2021/08/02 02:45:16;;;;;;;4.03;3.58;;;;;;;16.27;78.03;99180.59;153973;1094;103257;-79
2021/08/02 02:48:21;;;;;;;4.15;3.40;;;;;;;16.31;78.58;99179.13;154028;1093;103129;-76
2021/08/02 02:51:25;;;;;;;4.60;3.55;;;;;;;16.35;78.04;99174.95;154083;1100;103192;-82
2021/08/02 02:54:30;;;;;;;6.43;3.93;;;;;;;16.36;77.96;99182.00;154054;1093;103195;-79
2021/08/02 02:57:35;;;;;;;4.37;3.70;;;;;;;16.38;78.27;99185.30;154110;1093;103151;-79
2021/08/02 03:00:40;;;;;;;5.35;4.15;;;;;;;16.43;78.04;99179.25;154085;1101;103223;-79
2021/08/02 03:03:52;;;;;;;6.37;4.13;;;;;;;16.47;78.02;99183.15;154051;1101;103197;-80
2021/08/02 03:06:57;;;;;;;5.88;4.38;;;;;;;16.48;77.97;99182.94;154026;1093;103132;-80
2021/08/02 03:10:02;;;;;;;5.58;4.83;;;;;;;16.45;77.88;99177.98;154132;1101;103136;-79
2021/08/02 03:13:07;;;;;;;6.18;5.00;;;;;;;16.41;78.26;99181.33;154047;1101;103477;-77
2021/08/02 03:16:10;;;;;;;6.07;5.10;;;;;;;16.41;78.17;99181.33;153992;1093;103280;-78
2021/08/02 03:19:13;;;;;;;6.63;5.40;;;;;;;16.44;78.47;99189.80;154006;1093;103139;-76
2021/08/02 03:22:24;;;;;;;6.03;5.13;;;;;;;16.49;78.30;99195.38;154041;1093;103123;-77
2021/08/02 03:25:30;;;;;;;6.28;5.63;;;;;;;16.54;77.97;99199.27;153953;1101;103173;-76
2021/08/02 03:28:40;;;;;;;8.10;5.70;;;;;;;16.53;77.74;99198.42;153977;1093;103490;-76
2021/08/02 03:31:49;;;;;;;6.90;5.55;;;;;;;16.58;77.94;99200.48;153985;1100;103182;-76
2021/08/02 03:34:57;;;;;;;8.23;6.40;;;;;;;16.60;78.13;99204.59;153988;1101;103183;-76
2021/08/02 03:38:00;;;;;;;7.93;6.40;;;;;;;16.64;77.70;99215.77;154018;1093;103184;-75
2021/08/02 03:41:06;;;;;;;9.80;7.75;;;;;;;16.67;78.01;99215.34;154035;1100;103197;-77
2021/08/02 03:44:11;;;;;;;8.83;7.55;;;;;;;16.69;77.84;99218.64;154025;1093;103139;-76
2021/08/02 03:47:14;;;;;;;9.73;7.47;;;;;;;16.71;78.03;99218.43;154036;1100;103370;-76
2021/08/02 03:50:16;;;;;;;10.68;6.68;;;;;;;16.69;78.03;99215.95;153958;1094;103203;-75
2021/08/02 03:53:19;;;;;;;9.03;7.60;;;;;;;16.73;77.99;99217.16;153935;1101;103231;-75
2021/08/02 03:56:22;;;;;;;11.90;9.40;;;;;;;16.78;78.08;99222.72;153947;1101;103142;-75
2021/08/02 03:59:26;;;;;;;10.20;8.83;;;;;;;16.82;78.11;99225.81;153971;1100;103197;-76
2021/08/02 04:02:29;;;;;;;11.97;9.50;;;;;;;16.82;77.88;99226.66;153938;1101;103263;-76
2021/08/02 04:05:31;;;;;;;12.03;9.77;;;;;;;16.83;78.19;99235.55;153975;1101;103243;-76
2021/08/02 04:08:35;;;;;;;12.63;9.70;;;;;;;16.82;77.97;99232.05;153990;1100;103195;-77
2021/08/02 04:11:41;;;;;;;11.67;10.47;;;;;;;16.83;78.11;99241.77;153963;1093;103128;-77
2021/08/02 04:14:44;;;;;;;10.53;9.43;;;;;;;16.88;78.05;99244.63;154094;1100;103123;-75
2021/08/02 04:17:46;;;;;;;11.33;9.80;;;;;;;16.91;78.04;99239.84;153981;1093;103253;-79
2021/08/02 04:20:51;;;;;;;11.37;9.63;;;;;;;16.97;78.02;99244.36;154011;1094;103188;-76
2021/08/02 04:23:54;;;;;;;12.60;10.27;;;;;;;17.01;77.65;99234.78;153969;1093;103128;-76
2021/08/02 04:26:57;;;;;;;10.93;9.73;;;;;;;17.03;77.92;99243.47;154083;1093;103221;-77
2021/08/02 04:30:00;;;;;;;12.70;10.83;;;;;;;17.06;77.94;99251.13;154055;1101;103199;-77
2021/08/02 04:33:03;;;;;;;11.30;8.87;;;;;;;17.05;77.91;99255.70;154049;1100;103363;-77
2021/08/02 04:36:06;;;;;;;10.70;9.55;;;;;;;17.10;77.77;99255.03;153952;1101;103128;-80
2021/08/02 04:39:09;;;;;;;11.35;10.00;;;;;;;17.16;77.93;99256.84;153939;1101;103195;-78
2021/08/02 04:42:12;;;;;;;10.90;9.50;;;;;;;17.15;77.76;99263.30;153943;1093;103190;-76
2021/08/02 04:45:15;;;;;;;13.40;10.08;;;;;;;17.21;77.78;99261.59;154002;1100;103189;-77
2021/08/02 04:48:18;;;;;;;12.70;10.13;;;;;;;17.24;77.87;99255.73;153967;1100;103192;-77
2021/08/02 04:51:21;;;;;;;12.10;9.65;;;;;;;17.29;77.96;99263.99;153961;1101;103218;-78
2021/08/02 04:54:24;;;;;;;10.40;8.67;;;;;;;17.34;77.71;99271.41;154014;1094;103192;-78
2021/08/02 04:57:26;;;;;;;12.53;9.97;;;;;;;17.38;77.88;99268.06;154064;1093;103224;-78
2021/08/02 05:00:29;;;;;;;10.37;8.63;;;;;;;17.43;77.75;99270.90;153997;1100;103129;-78
2021/08/02 05:03:33;;;;;;;11.47;9.63;;;;;;;17.46;77.73;99270.47;154034;1094;103293;-77
2021/08/02 05:06:36;;;;;;;10.35;8.80;;;;;;;17.52;77.54;99278.73;153951;1100;103254;-76
2021/08/02 05:09:39;;;;;;;11.17;9.57;;;;;;;17.57;77.91;99282.41;153995;1101;103193;-76
2021/08/02 05:12:42;;;;;;;12.47;9.87;;;;;;;17.63;77.75;99291.48;153965;1093;103184;-74
2021/08/02 05:15:45;;;;;;;10.83;9.73;;;;;;;17.64;77.75;99288.54;153950;1094;103245;-76
2021/08/02 05:18:48;;;;;;;12.13;9.87;;;;;;;17.62;77.53;99285.24;154203;1098;103192;-78
2021/08/02 05:21:50;;;;;;;10.60;9.50;;;;;;;17.70;77.55;99291.41;154000;1093;103234;-78
2021/08/02 05:24:53;;;;;;;10.90;9.80;;;;;;;17.76;77.78;99301.30;154181;1094;103097;-76
2021/08/02 05:27:56;;;;;;;10.30;9.30;;;;;;;17.85;77.60;99310.79;153994;1093;103130;-75
2021/08/02 05:30:59;;;;;;;11.07;9.87;;;;;;;17.85;77.72;99299.99;154019;1100;103193;-82
2021/08/02 05:34:02;;;;;;;11.95;10.75;;;;;;;17.89;77.77;99300.38;154033;1100;103567;-77
2021/08/02 05:37:05;;;;;;;10.93;9.83;;;;;;;17.83;77.55;99297.48;154058;1100;103212;-78
2021/08/02 05:40:10;;;;;;;10.90;9.70;;;;;;;17.84;77.65;99309.13;154221;1093;103369;-75
2021/08/02 05:43:12;;;;;;;10.87;9.77;;;;;;;17.90;77.66;99313.65;154133;1100;103149;-81
2021/08/02 05:46:15;;;;;;;13.13;10.57;;;;;;;17.93;77.47;99315.88;154222;1100;103236;-78
2021/08/02 05:49:18;;;;;;;12.30;11.00;;;;;;;17.94;77.50;99312.15;154057;1093;103138;-82
2021/08/02 05:52:21;;;;;;;12.20;10.90;;;;;;;17.99;77.50;99309.58;154239;1093;103149;-78
2021/08/02 05:55:24;;;;;;;12.27;10.80;;;;;;;18.10;77.32;99310.72;154014;1100;103571;-76
2021/08/02 05:58:27;;;;;;;12.50;9.17;;;;;;;18.13;77.28;99318.38;154080;1093;103157;-76
2021/08/02 06:01:29;;;;;;;11.77;10.57;;;;;;;18.18;77.22;99326.60;154054;1100;103130;-74
2021/08/02 06:04:32;;;;;;;13.77;11.03;;;;;;;18.18;77.12;99325.79;154537;1098;103115;-74
2021/08/02 06:07:36;;;;;;;11.50;10.30;;;;;;;18.21;77.27;99328.05;154568;1093;103235;-73
2021/08/02 06:10:39;;;;;;;10.07;8.93;;;;;;;18.31;77.11;99327.52;154548;1098;103190;-73
2021/08/02 06:13:42;;;;;;;12.97;11.43;;;;;;;18.37;77.03;99321.20;154161;1093;103130;-74
2021/08/02 06:16:45;;;;;;;15.33;12.40;;;;;;;18.50;77.01;99312.94;153985;1100;103114;-73
2021/08/02 06:19:48;;;;;;;16.10;12.63;;;;;;;18.63;76.82;99331.67;153907;1100;103125;-73
2021/08/02 06:22:51;;;;;;;15.00;13.47;;;;;;;18.67;76.70;99331.19;154005;1100;103123;-74
2021/08/02 06:25:53;;;;;;;18.78;16.75;;;;;;;18.76;76.45;99333.34;154025;1100;103368;-75
2021/08/02 06:28:57;;;;;;;21.68;16.90;;;;;;;18.82;76.42;99342.45;154101;1093;103192;-75
2021/08/02 06:31:59;;;;;;;21.95;17.18;;;;;;;18.81;76.15;99344.33;154056;1093;103216;-75
2021/08/02 06:35:02;;;;;;;25.17;19.40;;;;;;;18.81;76.24;99347.03;153989;1100;103096;-75
2021/08/02 06:38:05;;;;;;;17.45;15.20;;;;;;;18.87;76.29;99349.89;153984;1100;103189;-76
2021/08/02 06:41:08;;;;;;;13.67;12.27;;;;;;;18.80;76.07;99353.52;154081;1100;103191;-73
2021/08/02 06:44:11;;;;;;;12.87;11.43;;;;;;;18.73;76.13;99360.03;154168;1100;103210;-72
2021/08/02 06:47:14;;;;;;;12.65;10.90;;;;;;;18.68;75.97;99362.58;154744;1100;103096;-76
2021/08/02 06:50:17;;;;;;;11.37;9.53;;;;;;;18.67;76.11;99367.17;154164;1100;103192;-75
2021/08/02 06:53:20;;;;;;;10.87;9.77;;;;;;;18.78;75.79;99366.40;154200;1100;103129;-75
2021/08/02 06:56:23;;;;;;;12.30;11.10;;;;;;;18.93;75.66;99366.00;154066;1100;103126;-75
2021/08/02 06:59:25;;;;;;;11.90;10.10;;;;;;;19.01;75.74;99372.95;153995;1100;103260;-75
2021/08/02 07:02:28;;;;;;;13.53;12.23;;;;;;;19.07;75.36;99371.22;154290;1100;103245;-75
2021/08/02 07:05:32;;;;;;;11.90;10.63;;;;;;;19.19;75.66;99374.80;154111;1100;103196;-73
2021/08/02 07:08:37;;;;;;;11.73;8.80;;;;;;;19.38;75.75;99378.22;154155;1093;103189;-73
2021/08/02 07:11:40;;;;;;;11.10;8.50;;;;;;;19.62;75.08;99381.80;153957;1098;103202;-73
2021/08/02 07:14:43;;;;;;;8.40;7.55;;;;;;;19.78;75.40;99378.45;154053;1093;103167;-74
2021/08/02 07:17:45;;;;;;;10.60;8.45;;;;;;;19.93;74.31;99379.84;153996;1093;103185;-74
2021/08/02 07:20:49;;;;;;;9.40;8.50;;;;;;;20.07;74.47;99381.23;154068;1093;103188;-73
2021/08/02 07:23:54;;;;;;;8.97;8.13;;;;;;;20.17;74.37;99380.67;154091;1101;103214;-76
2021/08/02 07:26:57;;;;;;;8.23;7.43;;;;;;;20.38;74.63;99390.88;154036;1101;103119;-82
2021/08/02 07:29:59;;;;;;;10.20;8.53;;;;;;;20.63;74.37;99391.66;154686;1098;103116;-73
2021/08/02 07:33:03;;;;;;;10.30;8.63;;;;;;;20.74;71.88;99401.65;153970;1100;103264;-73
2021/08/02 07:36:07;;;;;;;8.43;7.40;;;;;;;20.78;73.39;99400.94;154076;1100;103192;-72
2021/08/02 07:39:18;;;;;;;9.50;8.60;;;;;;;20.82;73.08;99403.16;154343;1093;103122;-74
2021/08/02 07:42:21;;;;;;;8.90;8.07;;;;;;;20.95;73.20;99408.30;153931;1100;103191;-73
2021/08/02 07:45:24;;;;;;;9.03;7.80;;;;;;;21.01;72.93;99411.92;154133;1100;103190;-72
2021/08/02 07:48:27;;;;;;;8.83;8.03;;;;;;;21.07;72.88;99417.19;154370;1093;103212;-72
2021/08/02 07:51:31;;;;;;;8.93;8.03;;;;;;;21.26;72.58;99408.86;154132;1093;103128;-73
2021/08/02 07:54:33;;;;;;;8.83;6.73;;;;;;;21.36;72.52;99415.30;154038;1093;103136;-73
2021/08/02 07:57:36;;;;;;;7.60;6.80;;;;;;;21.50;71.82;99423.16;154571;1093;103126;-73
2021/08/02 08:00:40;;;;;;;7.67;6.83;;;;;;;21.60;72.32;99422.52;154583;1093;103189;-73
2021/08/02 08:03:44;;;;;;;8.43;7.60;;;;;;;21.70;71.37;99422.67;153981;1093;103304;-73
2021/08/02 08:06:47;;;;;;;7.63;6.90;;;;;;;21.73;71.35;99425.72;153965;1100;103564;-73
2021/08/02 08:09:49;;;;;;;7.63;6.87;;;;;;;21.67;70.13;99425.87;154587;1093;103104;-73
2021/08/02 08:12:53;;;;;;;7.90;7.20;;;;;;;21.65;70.72;99428.85;154605;1098;103130;-73
2021/08/02 08:15:56;;;;;;;6.95;6.35;;;;;;;21.57;70.19;99423.81;154655;1098;103126;-73
2021/08/02 08:18:59;;;;;;;8.00;7.30;;;;;;;21.60;67.75;99426.05;153990;1093;103228;-73
2021/08/02 08:22:02;;;;;;;8.05;7.25;;;;;;;21.53;69.91;99428.09;154606;1098;103139;-73
2021/08/02 08:25:07;;;;;;;8.77;7.97;;;;;;;21.44;69.50;99427.68;153965;1100;103197;-74
2021/08/02 08:28:11;;;;;;;7.85;6.63;;;;;;;21.36;69.09;99426.16;154579;1093;103211;-74
2021/08/02 08:31:13;;;;;;;7.35;6.58;;;;;;;21.43;68.21;99417.84;154116;1100;103193;-74
2021/08/02 08:34:16;;;;;;;7.20;6.40;;;;;;;21.50;69.85;99423.98;154555;1098;103275;-74
2021/08/02 08:37:19;;;;;;;9.20;6.20;;;;;;;21.72;70.01;99428.67;153983;1100;103478;-74
2021/08/02 08:40:23;;;;;;;7.60;5.98;;;;;;;21.91;69.74;99438.22;154562;1098;103125;-74
2021/08/02 08:43:25;;;;;;;6.17;5.57;;;;;;;22.05;69.01;99427.83;153987;1091;103097;-74
2021/08/02 08:46:28;;;;;;;5.83;5.23;;;;;;;22.06;68.20;99440.35;154584;1098;103145;-74
2021/08/02 08:49:31;;;;;;;5.20;4.70;;;;;;;22.08;69.18;99437.39;153948;1094;103238;-74
2021/08/02 08:52:36;;;;;;;5.13;4.43;;;;;;;22.24;69.21;99441.15;154628;1093;103144;-73
2021/08/02 08:55:42;;;;;;;5.00;4.50;;;;;;;22.17;67.61;99441.31;154571;1093;103189;-74
2021/08/02 08:58:45;;;;;;;4.60;4.20;;;;;;;22.14;68.48;99445.36;154006;1100;103128;-73
2021/08/02 09:01:59;;;;;;;5.08;4.53;;;;;;;22.18;67.37;99458.45;154408;1098;103144;-75
2021/08/02 09:05:03;;;;;;;4.80;4.30;;;;;;;22.12;67.31;99460.27;154374;1098;103282;-72
2021/08/02 09:08:07;;;;;;;5.40;4.10;;;;;;;22.10;68.03;99459.70;154015;1093;103569;-72
2021/08/02 09:11:16;;;;;;;6.63;4.27;;;;;;;22.23;67.43;99466.66;154268;1098;103198;-75
2021/08/02 09:14:19;;;;;;;4.68;4.28;;;;;;;22.26;66.66;99467.02;153976;1093;103094;-75
2021/08/02 09:17:34;;;;;;;4.40;4.00;;;;;;;22.32;67.50;99468.73;154361;1098;103189;-74
2021/08/02 09:20:38;;;;;;;5.30;4.30;;;;;;;22.38;65.97;99469.64;154332;1098;103286;-75
2021/08/02 09:23:51;;;;;;;4.20;3.80;;;;;;;22.47;67.48;99479.02;154105;1093;103150;-74
2021/08/02 09:26:54;;;;;;;4.85;4.00;;;;;;;22.54;66.64;99492.45;154048;1100;103190;-73
2021/08/02 09:29:57;;;;;;;4.33;3.93;;;;;;;22.61;66.41;99484.91;153940;1101;103140;-74
2021/08/02 09:33:06;;;;;;;4.40;4.00;;;;;;;22.63;65.49;99493.64;153945;1093;103195;-74
2021/08/02 09:36:08;;;;;;;4.63;4.23;;;;;;;22.67;65.96;99492.08;153968;1093;103269;-73
2021/08/02 09:39:14;;;;;;;5.37;4.87;;;;;;;22.72;64.67;99500.30;154025;1093;103157;-74
2021/08/02 09:42:27;;;;;;;4.18;3.65;;;;;;;22.77;65.47;99504.99;153928;1093;103154;-74
2021/08/02 09:45:43;;;;;;;4.97;3.60;;;;;;;23.05;65.73;99505.91;153935;1096;103128;-74
2021/08/02 09:48:47;;;;;;;3.68;3.38;;;;;;;23.36;64.70;99515.23;154033;1101;103195;-74
2021/08/02 09:51:50;;;;;;;4.83;3.77;;;;;;;23.50;62.93;99511.05;154035;1101;103284;-73
2021/08/02 09:55:01;;;;;;;3.40;3.10;;;;;;;23.65;64.52;99509.55;154009;1094;103191;-73
2021/08/02 09:58:04;;;;;;;3.90;3.60;;;;;;;23.48;62.07;99521.38;153990;1093;103157;-73
2021/08/02 10:01:08;;;;;;;4.75;3.20;;;;;;;23.33;61.60;99521.21;153977;1093;103192;-73
2021/08/02 10:04:11;;;;;;;3.50;3.20;;;;;;;23.28;63.84;99515.70;153951;1101;103100;-73
2021/08/02 10:07:16;;;;;;;3.53;3.23;;;;;;;23.36;61.52;99519.87;153935;1094;103314;-73
2021/08/02 10:10:19;;;;;;;3.73;3.43;;;;;;;23.08;60.65;99527.18;153941;1101;103229;-74
2021/08/02 10:13:27;;;;;;;3.23;3.00;;;;;;;22.90;62.54;99517.38;153927;1101;103218;-73
2021/08/02 10:16:31;;;;;;;4.53;3.30;;;;;;;22.54;59.70;99523.17;154018;1094;103125;-72
2021/08/02 10:19:38;;;;;;;4.07;3.60;;;;;;;22.23;60.92;99524.58;153933;1093;103238;-73
2021/08/02 10:22:44;;;;;;;3.80;3.50;;;;;;;22.21;61.51;99524.00;154414;1093;103264;-73
2021/08/02 10:25:47;;;;;;;4.93;4.43;;;;;;;22.40;61.49;99526.47;153959;1100;103192;-72
2021/08/02 10:28:54;;;;;;;9.20;4.27;;;;;;;22.69;61.44;99519.84;153948;1100;103239;-72
2021/08/02 10:31:57;;;;;;;4.65;4.25;;;;;;;22.87;61.68;99521.44;154179;1093;103193;-72
2021/08/02 10:35:00;;;;;;;5.83;3.70;;;;;;;22.84;60.88;99518.39;154379;1093;103115;-72
2021/08/02 10:38:05;;;;;;;5.20;3.70;;;;;;;22.97;60.21;99514.48;153977;1100;103320;-72
2021/08/02 10:41:08;;;;;;;3.77;3.47;;;;;;;23.03;60.36;99517.03;154236;1093;103129;-72
2021/08/02 10:44:16;;;;;;;4.03;3.70;;;;;;;23.05;60.89;99522.23;154391;1093;103124;-71
2021/08/02 10:47:19;;;;;;;3.90;3.60;;;;;;;22.73;57.11;99531.87;154307;1098;103088;-72
2021/08/02 10:50:26;;;;;;;4.00;3.45;;;;;;;22.57;59.96;99523.73;154002;1100;103124;-71
2021/08/02 10:53:29;;;;;;;5.30;3.30;;;;;;;22.19;57.19;99533.45;154000;1093;103261;-72
2021/08/02 10:56:33;;;;;;;3.40;2.98;;;;;;;22.32;59.74;99531.25;154280;1098;103122;-72
2021/08/02 10:59:38;;;;;;;4.40;3.28;;;;;;;22.63;60.11;99533.61;154324;1093;103184;-72
2021/08/02 11:02:50;;;;;;;4.10;3.33;;;;;;;22.90;59.28;99528.27;153981;1093;103110;-72
2021/08/02 11:05:53;;;;;;;3.03;2.77;;;;;;;22.96;58.07;99535.44;154343;1094;103163;-72
2021/08/02 11:08:57;;;;;;;2.40;2.20;;;;;;;22.89;57.43;99532.89;154167;1093;103192;-73
2021/08/02 11:12:10;;;;;;;2.60;2.10;;;;;;;22.92;56.81;99539.71;154253;1094;103195;-72
2021/08/02 11:15:14;;;;;;;2.68;2.48;;;;;;;22.83;54.93;99547.50;154217;1093;103122;-72
2021/08/02 11:18:25;;;;;;;2.20;2.00;;;;;;;22.82;55.03;99550.47;154474;1093;103183;-72
2021/08/02 11:21:28;;;;;;;3.17;2.20;;;;;;;22.90;56.89;99547.30;153990;1100;103279;-72
2021/08/02 11:24:32;;;;;;;2.55;2.03;;;;;;;22.95;53.65;99544.66;154583;1098;103255;-72
2021/08/02 11:27:35;;;;;;;2.53;2.10;;;;;;;22.93;54.21;99541.38;153950;1100;103107;-72
2021/08/02 11:30:49;;;;;;;2.55;2.00;;;;;;;22.90;56.58;99550.02;154581;1093;103547;-72
2021/08/02 11:33:52;;;;;;;2.33;2.10;;;;;;;22.80;56.00;99550.71;154481;1098;103208;-72
2021/08/02 11:37:04;;;;;;;2.55;2.10;;;;;;;22.59;53.46;99557.75;154063;1093;103136;-72
2021/08/02 11:40:08;;;;;;;2.68;1.83;;;;;;;22.65;56.42;99567.66;154586;1093;103248;-72
2021/08/02 11:43:11;;;;;;;2.65;1.93;;;;;;;22.64;56.24;99552.40;154035;1100;103196;-72
2021/08/02 11:46:14;;;;;;;3.00;2.30;;;;;;;22.67;55.16;99554.63;153959;1100;103192;-72
2021/08/02 11:49:17;;;;;;;2.30;2.10;;;;;;;22.84;55.89;99549.13;154607;1093;103134;-72
2021/08/02 11:52:22;;;;;;;3.20;1.90;;;;;;;22.94;55.44;99559.33;154506;1098;103193;-72
2021/08/02 11:55:24;;;;;;;3.30;2.20;;;;;;;22.90;56.04;99559.03;154612;1098;103262;-72
2021/08/02 11:58:38;;;;;;;2.73;2.30;;;;;;;22.90;55.96;99559.03;153964;1093;103246;-72
2021/08/02 12:01:46;;;;;;;4.70;2.40;;;;;;;22.94;55.63;99559.33;154110;1093;104658;-72
2021/08/02 12:04:49;;;;;;;2.48;2.20;;;;;;;23.03;55.21;99566.02;154611;1098;103291;-72
2021/08/02 12:07:53;;;;;;;3.18;1.90;;;;;;;23.11;55.64;99564.75;154425;1093;103112;-72
2021/08/02 12:10:56;;;;;;;2.80;2.10;;;;;;;23.17;55.08;99557.48;154212;1098;103244;-72
2021/08/02 12:13:59;;;;;;;2.13;1.93;;;;;;;23.32;55.16;99557.66;154030;1098;103187;-72
2021/08/02 12:17:07;;;;;;;2.25;1.90;;;;;;;23.48;52.61;99558.66;154288;1093;103218;-72
2021/08/02 12:20:12;;;;;;;2.60;2.00;;;;;;;23.66;55.24;99560.23;153955;1100;103191;-72
2021/08/02 12:23:24;;;;;;;1.90;1.73;;;;;;;23.93;54.84;99565.70;154354;1098;103144;-72
2021/08/02 12:26:27;;;;;;;2.00;1.75;;;;;;;24.23;55.13;99551.52;154221;1098;103264;-72
2021/08/02 12:29:31;;;;;;;2.90;1.83;;;;;;;24.41;51.96;99554.92;154245;1093;103125;-72
2021/08/02 12:32:39;;;;;;;2.37;1.60;;;;;;;24.33;52.17;99558.95;153976;1093;103198;-72
2021/08/02 12:35:43;;;;;;;2.95;2.00;;;;;;;24.24;51.77;99561.33;154355;1098;103192;-72
2021/08/02 12:38:48;;;;;;;1.97;1.70;;;;;;;24.03;50.98;99557.61;154059;1093;103195;-72
2021/08/02 12:41:51;;;;;;;2.00;1.78;;;;;;;24.01;51.65;99557.05;154332;1093;103550;-72
2021/08/02 12:44:54;;;;;;;1.80;1.60;;;;;;;24.10;53.19;99558.22;154612;1098;103213;-72
2021/08/02 12:47:57;;;;;;;3.50;1.70;;;;;;;24.33;52.77;99550.78;154603;1098;103193;-72
2021/08/02 12:51:00;;;;;;;1.90;1.50;;;;;;;24.26;52.99;99553.71;154621;1098;103193;-72
2021/08/02 12:54:03;;;;;;;2.83;2.10;;;;;;;24.21;51.83;99550.97;154079;1100;103211;-72
2021/08/02 12:57:06;;;;;;;1.80;1.70;;;;;;;24.25;52.97;99543.91;154586;1098;103256;-72
2021/08/02 13:00:12;;;;;;;2.10;1.60;;;;;;;24.30;52.95;99538.47;154037;1100;103516;-73
2021/08/02 13:03:15;;;;;;;1.98;1.70;;;;;;;24.22;51.96;99546.33;154013;1100;103096;-72
2021/08/02 13:06:20;;;;;;;2.23;1.70;;;;;;;24.19;51.67;99552.28;154615;1093;103138;-72
2021/08/02 13:09:22;;;;;;;2.18;1.80;;;;;;;24.04;50.86;99544.83;153955;1100;103147;-73
2021/08/02 13:12:26;;;;;;;1.87;1.70;;;;;;;23.60;51.22;99544.92;154590;1098;103927;-72
2021/08/02 13:15:28;;;;;;;2.07;1.60;;;;;;;23.42;51.65;99546.91;153994;1100;103195;-72
2021/08/02 13:18:31;;;;;;;2.97;1.73;;;;;;;23.21;50.99;99547.73;153947;1101;103184;-72
2021/08/02 13:21:34;;;;;;;1.60;1.50;;;;;;;23.05;52.04;99544.00;154595;1098;103237;-72
2021/08/02 13:27:58;;;;;;;;;;;;;;;22.93;51.50;99549.53;153971;1100;103279;-73
2021/08/02 13:31:00;;;;;;;1.80;1.70;;;;;;;22.86;52.48;99557.05;154052;1100;103200;-71
2021/08/02 13:34:03;;;;;;;1.67;1.57;;;;;;;22.73;51.83;99550.09;154576;1094;103573;-72
2021/08/02 13:37:07;;;;;;;1.57;1.40;;;;;;;22.55;51.54;99556.61;154017;1093;103144;-72
2021/08/02 13:40:11;;;;;;;1.87;1.40;;;;;;;22.53;51.75;99559.56;154773;1093;103142;-72
2021/08/02 13:43:14;;;;;;;1.70;1.60;;;;;;;22.69;52.04;99555.20;154016;1094;103369;-72
2021/08/02 13:46:17;;;;;;;1.50;1.40;;;;;;;23.05;51.99;99560.33;154100;1093;103123;-72
2021/08/02 13:49:20;;;;;;;2.17;1.70;;;;;;;23.37;50.63;99552.28;154068;1093;103488;-72
2021/08/02 13:52:23;;;;;;;2.00;1.77;;;;;;;23.60;51.33;99558.53;154054;1100;103126;-72
2021/08/02 13:55:26;;;;;;;2.40;1.70;;;;;;;23.72;50.67;99551.84;153956;1100;103177;-73
2021/08/02 13:58:29;;;;;;;3.17;1.80;;;;;;;23.83;50.27;99551.98;153968;1101;103198;-72
2021/08/02 14:01:32;;;;;;;1.70;1.60;;;;;;;23.90;50.82;99545.25;154013;1100;103151;-72
2021/08/02 14:04:36;;;;;;;2.63;1.53;;;;;;;23.88;50.06;99555.59;153945;1100;103129;-72
2021/08/02 14:07:39;;;;;;;2.57;1.70;;;;;;;23.84;50.80;99557.16;153990;1093;103125;-72
2021/08/02 14:10:42;;;;;;;2.00;1.60;;;;;;;23.85;50.51;99558.00;154010;1100;103146;-71